createdAt,value
2017-08-16T00:02:04.366Z,2.27
2017-08-16T00:04:31.820Z,2.37
2017-08-16T00:06:59.290Z,4.50
2017-08-16T00:09:26.738Z,4.30
2017-08-16T00:11:54.303Z,2.20
2017-08-16T00:14:21.760Z,2.80
2017-08-16T00:16:49.981Z,3.07
2017-08-16T00:19:17.805Z,3.73
2017-08-16T00:21:46.020Z,2.30
2017-08-16T00:24:13.468Z,2.80
2017-08-16T00:26:40.921Z,2.00
2017-08-16T00:29:08.381Z,7.93
2017-08-16T00:31:36.623Z,3.50
2017-08-16T00:34:04.076Z,3.47
2017-08-16T00:36:31.537Z,3.23
2017-08-16T00:38:59.003Z,6.00
2017-08-16T00:41:26.465Z,2.00
2017-08-16T00:43:53.907Z,4.70
2017-08-16T00:46:21.368Z,2.47
2017-08-16T00:48:48.835Z,1.80
2017-08-16T00:51:16.330Z,3.90
2017-08-16T00:53:43.789Z,3.57
2017-08-16T00:56:11.243Z,19.93
2017-08-16T00:58:38.728Z,2.00
2017-08-16T01:01:06.191Z,2.10
2017-08-16T01:03:33.669Z,3.90
2017-08-16T01:06:01.901Z,1.80
2017-08-16T01:08:29.358Z,2.27
2017-08-16T01:10:56.816Z,9.23
2017-08-16T01:13:24.267Z,2.40
2017-08-16T01:15:51.725Z,3.67
2017-08-16T01:18:19.170Z,2.93
2017-08-16T01:20:47.396Z,2.30
2017-08-16T01:23:14.847Z,2.33
2017-08-16T01:25:42.333Z,4.17
2017-08-16T01:28:09.903Z,4.43
2017-08-16T01:30:37.358Z,4.17
2017-08-16T01:33:04.815Z,2.23
2017-08-16T01:35:32.288Z,2.93
2017-08-16T01:38:00.048Z,2.47
2017-08-16T01:40:27.489Z,3.07
2017-08-16T01:42:54.955Z,3.83
2017-08-16T01:45:22.400Z,3.60
2017-08-16T01:47:49.849Z,2.87
2017-08-16T01:50:18.062Z,3.33
2017-08-16T01:52:45.522Z,9.70
2017-08-16T01:55:12.965Z,3.30
2017-08-16T01:57:40.417Z,3.80
2017-08-16T02:00:08.637Z,5.17
2017-08-16T02:02:36.109Z,5.33
2017-08-16T02:05:03.572Z,5.43
2017-08-16T02:07:31.136Z,5.50
2017-08-16T02:09:58.584Z,26.37
2017-08-16T02:12:26.058Z,13.27
2017-08-16T02:14:53.520Z,5.23
2017-08-16T02:17:20.976Z,4.93
2017-08-16T02:19:48.460Z,4.87
2017-08-16T02:22:15.908Z,5.13
2017-08-16T02:24:43.364Z,7.10
2017-08-16T02:27:20.351Z,6.97
2017-08-16T02:29:47.805Z,6.37
2017-08-16T02:32:15.260Z,5.70
2017-08-16T02:34:42.894Z,4.90
2017-08-16T02:37:11.185Z,7.27
2017-08-16T02:39:38.639Z,6.50
2017-08-16T02:42:06.864Z,5.90
2017-08-16T02:44:35.510Z,4.33
2017-08-16T02:47:03.740Z,12.67
2017-08-16T02:49:31.205Z,7.37
2017-08-16T02:51:58.661Z,5.40
2017-08-16T02:54:26.120Z,8.23
2017-08-16T02:56:53.576Z,5.80
2017-08-16T02:59:21.033Z,6.50
2017-08-16T03:01:48.474Z,6.60
2017-08-16T03:04:15.940Z,8.93
2017-08-16T03:06:43.401Z,7.90
2017-08-16T03:09:10.858Z,7.63
2017-08-16T03:11:39.073Z,13.83
2017-08-16T03:14:06.534Z,7.40
2017-08-16T03:16:34.016Z,5.93
2017-08-16T03:19:01.465Z,6.17
2017-08-16T03:21:28.925Z,8.53
2017-08-16T03:23:56.377Z,8.90
2017-08-16T03:26:23.893Z,12.10
2017-08-16T03:28:51.356Z,6.53
2017-08-16T03:31:18.818Z,8.63
2017-08-16T03:33:46.259Z,11.80
2017-08-16T03:36:13.715Z,7.90
2017-08-16T03:38:41.164Z,16.73
2017-08-16T03:41:08.635Z,10.20
2017-08-16T03:43:36.087Z,20.80
2017-08-16T03:46:03.539Z,7.90
2017-08-16T03:48:30.983Z,9.03
2017-08-16T03:50:58.444Z,11.90
2017-08-16T03:53:26.651Z,13.40
2017-08-16T03:55:54.640Z,9.87
2017-08-16T03:58:22.102Z,7.80
2017-08-16T04:00:49.561Z,14.70
2017-08-16T04:03:17.049Z,12.70
2017-08-16T04:05:44.510Z,10.60
2017-08-16T04:08:11.987Z,23.53
2017-08-16T04:10:40.217Z,13.57
2017-08-16T04:13:07.676Z,15.33
2017-08-16T04:15:35.158Z,17.60
2017-08-16T04:18:02.646Z,16.43
2017-08-16T04:20:30.112Z,19.20
2017-08-16T04:22:57.586Z,18.33
2017-08-16T04:25:25.835Z,19.27
2017-08-16T04:27:53.290Z,19.47
2017-08-16T04:30:20.756Z,23.03
2017-08-16T04:32:48.220Z,33.03
2017-08-16T04:35:16.252Z,22.67
2017-08-16T04:37:43.714Z,23.13
2017-08-16T04:40:11.942Z,24.10
2017-08-16T04:42:39.396Z,27.33
2017-08-16T04:45:06.860Z,22.33
2017-08-16T04:47:34.342Z,23.93
2017-08-16T04:50:01.833Z,18.20
2017-08-16T04:52:30.074Z,25.70
2017-08-16T04:54:57.566Z,18.23
2017-08-16T04:57:25.012Z,26.60
2017-08-16T04:59:53.084Z,28.17
2017-08-16T05:02:20.540Z,27.03
2017-08-16T05:04:48.000Z,28.77
2017-08-16T05:07:15.455Z,22.77
2017-08-16T05:09:42.906Z,26.73
2017-08-16T05:12:10.369Z,25.33
2017-08-16T05:14:37.849Z,42.73
2017-08-16T05:17:05.312Z,29.70
2017-08-16T05:19:33.368Z,18.50
2017-08-16T05:22:00.820Z,31.67
2017-08-16T05:24:28.291Z,32.93
2017-08-16T05:26:55.718Z,27.90
2017-08-16T05:29:23.959Z,30.43
2017-08-16T05:31:51.398Z,25.43
2017-08-16T05:34:18.837Z,25.03
2017-08-16T05:36:46.273Z,22.73
2017-08-16T05:39:13.760Z,26.80
2017-08-16T05:41:41.985Z,27.80
2017-08-16T05:44:09.453Z,31.47
2017-08-16T05:46:36.916Z,35.20
2017-08-16T05:49:04.405Z,23.50
2017-08-16T05:51:31.877Z,28.00
2017-08-16T05:54:00.105Z,29.80
2017-08-16T05:56:27.595Z,29.83
2017-08-16T05:58:55.069Z,28.33
2017-08-16T06:01:22.536Z,28.30
2017-08-16T06:03:50.002Z,37.70
2017-08-16T06:06:18.285Z,35.13
2017-08-16T06:08:45.743Z,30.57
2017-08-16T06:11:13.208Z,34.70
2017-08-16T06:13:40.676Z,38.20
2017-08-16T06:16:08.133Z,29.73
2017-08-16T06:18:35.600Z,44.97
2017-08-16T06:21:03.052Z,41.90
2017-08-16T06:23:30.534Z,45.40
2017-08-16T06:25:58.772Z,42.87
2017-08-16T06:28:26.232Z,40.67
2017-08-16T06:30:53.707Z,34.60
2017-08-16T06:33:21.164Z,50.30
2017-08-16T06:35:48.630Z,46.03
2017-08-16T06:38:16.086Z,55.13
2017-08-16T06:40:43.553Z,52.23
2017-08-16T06:43:11.026Z,59.57
2017-08-16T06:45:38.494Z,49.17
2017-08-16T06:48:05.957Z,61.90
2017-08-16T06:50:33.428Z,58.10
2017-08-16T06:53:00.873Z,55.63
2017-08-16T06:55:28.333Z,50.27
2017-08-16T06:57:55.813Z,55.93
2017-08-16T07:00:23.289Z,48.60
2017-08-16T07:02:50.745Z,55.27
2017-08-16T07:05:18.213Z,61.20
2017-08-16T07:07:45.678Z,54.80
2017-08-16T07:10:13.126Z,63.03
2017-08-16T07:12:40.588Z,51.00
2017-08-16T07:15:08.053Z,52.83
2017-08-16T07:17:35.536Z,44.90
2017-08-16T07:20:03.758Z,52.53
2017-08-16T07:22:31.220Z,66.47
2017-08-16T07:24:58.685Z,49.67
2017-08-16T07:27:26.149Z,59.00
2017-08-16T07:29:53.609Z,46.83
2017-08-16T07:32:21.065Z,64.60
2017-08-16T07:34:48.536Z,64.70
2017-08-16T07:37:15.972Z,61.80
2017-08-16T07:39:43.431Z,58.70
2017-08-16T07:42:10.889Z,53.80
2017-08-16T07:44:39.115Z,50.13
2017-08-16T07:47:06.559Z,60.60
2017-08-16T07:49:34.081Z,49.27
2017-08-16T07:52:01.543Z,47.00
2017-08-16T07:54:29.771Z,41.90
2017-08-16T07:56:57.234Z,53.20
2017-08-16T07:59:24.693Z,56.47
2017-08-16T08:01:52.157Z,51.30
2017-08-16T08:04:19.620Z,40.03
2017-08-16T08:06:47.081Z,41.20
2017-08-16T08:09:14.548Z,33.53
2017-08-16T08:11:42.005Z,52.43
2017-08-16T08:14:09.479Z,39.63
2017-08-16T08:16:36.940Z,39.80
2017-08-16T08:19:04.416Z,33.00
2017-08-16T08:21:31.884Z,38.00
2017-08-16T08:23:59.340Z,36.27
2017-08-16T08:26:26.835Z,32.80
2017-08-16T08:28:54.299Z,40.97
2017-08-16T08:31:21.960Z,40.10
2017-08-16T08:33:49.424Z,27.80
2017-08-16T08:36:16.889Z,27.50
2017-08-16T08:38:44.381Z,28.33
2017-08-16T08:41:11.844Z,27.90
2017-08-16T08:43:39.318Z,26.73
2017-08-16T08:46:07.596Z,26.00
2017-08-16T08:48:35.787Z,29.70
2017-08-16T08:51:03.255Z,25.63
2017-08-16T08:53:30.754Z,26.80
2017-08-16T08:55:58.227Z,23.50
2017-08-16T08:58:25.694Z,27.50
2017-08-16T09:00:53.184Z,25.30
2017-08-16T09:03:21.391Z,18.67
2017-08-16T09:05:48.858Z,22.90
2017-08-16T09:08:16.369Z,23.53
2017-08-16T09:10:44.600Z,20.60
2017-08-16T09:13:12.055Z,18.70
2017-08-16T09:15:39.517Z,24.10
2017-08-16T09:18:06.990Z,25.67
2017-08-16T09:20:34.444Z,20.20
2017-08-16T09:23:02.573Z,19.57
2017-08-16T09:25:30.036Z,21.40
2017-08-16T09:27:57.498Z,19.60
2017-08-16T09:30:24.944Z,24.00
2017-08-16T09:32:52.417Z,23.23
2017-08-16T09:35:19.874Z,23.87
2017-08-16T09:37:47.345Z,17.90
2017-08-16T09:40:14.796Z,24.00
2017-08-16T09:42:42.652Z,17.87
2017-08-16T09:45:10.124Z,20.77
2017-08-16T09:47:37.590Z,16.00
2017-08-16T09:50:05.116Z,16.57
2017-08-16T09:52:32.572Z,17.80
2017-08-16T09:55:00.037Z,15.40
2017-08-16T09:57:27.503Z,14.00
2017-08-16T09:59:54.977Z,15.13
2017-08-16T10:02:22.434Z,17.10
2017-08-16T10:04:49.906Z,12.80
2017-08-16T10:07:17.436Z,18.23
2017-08-16T10:09:45.660Z,12.93
2017-08-16T10:12:13.125Z,16.27
2017-08-16T10:14:40.585Z,15.20
2017-08-16T10:17:08.309Z,18.40
2017-08-16T10:19:36.529Z,11.00
2017-08-16T10:22:04.031Z,16.80
2017-08-16T10:24:32.272Z,13.67
2017-08-16T10:26:59.753Z,13.57
2017-08-16T10:29:27.205Z,13.70
2017-08-16T10:31:54.701Z,16.60
2017-08-16T10:34:22.250Z,17.20
2017-08-16T10:36:49.724Z,14.43
2017-08-16T10:39:17.187Z,14.90
2017-08-16T10:41:44.642Z,13.10
2017-08-16T10:44:12.101Z,13.50
2017-08-16T10:46:39.585Z,14.50
2017-08-16T10:49:07.044Z,12.53
2017-08-16T10:51:34.512Z,12.87
2017-08-16T10:54:01.977Z,13.27
2017-08-16T10:56:30.218Z,11.27
2017-08-16T10:58:57.690Z,13.10
2017-08-16T11:01:25.156Z,10.97
2017-08-16T11:03:52.620Z,20.93
2017-08-16T11:06:20.081Z,13.50
2017-08-16T11:08:47.540Z,11.70
2017-08-16T11:11:15.031Z,11.53
2017-08-16T11:13:42.486Z,10.17
2017-08-16T11:16:09.946Z,13.40
2017-08-16T11:18:37.525Z,11.90
2017-08-16T11:21:05.761Z,15.40
2017-08-16T11:23:33.212Z,10.50
2017-08-16T11:26:00.665Z,9.63
2017-08-16T11:28:28.172Z,12.00
2017-08-16T11:30:55.625Z,14.93
2017-08-16T11:33:23.088Z,9.93
2017-08-16T11:35:50.536Z,9.93
2017-08-16T11:38:17.994Z,9.30
2017-08-16T11:40:45.486Z,11.50
2017-08-16T11:43:12.940Z,10.23
2017-08-16T11:45:40.393Z,9.77
2017-08-16T11:48:07.852Z,8.93
2017-08-16T11:50:35.312Z,7.90
2017-08-16T11:53:02.765Z,10.23
2017-08-16T11:55:30.242Z,11.10
2017-08-16T11:57:57.692Z,8.30
2017-08-16T12:00:25.148Z,8.70
2017-08-16T12:02:52.592Z,9.00
2017-08-16T12:05:20.120Z,8.50
2017-08-16T12:07:47.578Z,8.07
2017-08-16T12:10:15.630Z,8.30
2017-08-16T12:12:43.092Z,9.07
2017-08-16T12:15:11.484Z,9.30
2017-08-16T12:17:38.948Z,9.87
2017-08-16T12:20:06.413Z,8.70
2017-08-16T12:22:33.894Z,8.53
2017-08-16T12:25:02.140Z,7.17
2017-08-16T12:27:29.595Z,7.53
2017-08-16T12:29:57.035Z,8.97
2017-08-16T12:32:24.493Z,7.47
2017-08-16T12:34:52.703Z,10.43
2017-08-16T12:37:20.178Z,7.00
2017-08-16T12:39:48.217Z,8.80
2017-08-16T12:42:17.605Z,6.73
2017-08-16T12:44:45.851Z,7.97
2017-08-16T12:47:13.319Z,5.90
2017-08-16T12:49:40.851Z,6.13
2017-08-16T12:52:08.285Z,8.03
2017-08-16T12:54:36.505Z,6.77
2017-08-16T12:57:03.989Z,9.53
2017-08-16T12:59:31.434Z,5.90
2017-08-16T13:01:58.897Z,10.03
2017-08-16T13:04:26.353Z,5.50
2017-08-16T13:06:53.810Z,6.40
2017-08-16T13:09:21.268Z,5.53
2017-08-16T13:11:48.727Z,5.70
2017-08-16T13:14:16.181Z,6.43
2017-08-16T13:16:43.637Z,4.83
2017-08-16T13:19:11.852Z,5.83
2017-08-16T13:21:39.321Z,6.40
2017-08-16T13:24:06.773Z,5.97
2017-08-16T13:26:34.224Z,7.93
2017-08-16T13:29:01.692Z,5.40
2017-08-16T13:31:29.137Z,5.03
2017-08-16T13:33:56.596Z,6.40
2017-08-16T13:36:24.039Z,6.13
2017-08-16T13:38:52.260Z,5.13
2017-08-16T13:41:19.728Z,4.30
2017-08-16T13:43:47.188Z,5.13
2017-08-16T13:46:14.665Z,6.40
2017-08-16T13:48:42.125Z,4.53
2017-08-16T13:51:09.579Z,5.23
2017-08-16T13:53:37.026Z,7.83
2017-08-16T13:56:04.492Z,6.00
2017-08-16T13:58:31.959Z,6.60
2017-08-16T14:00:59.400Z,4.53
2017-08-16T14:03:26.848Z,6.23
2017-08-16T14:05:55.072Z,4.47
2017-08-16T14:08:22.528Z,5.20
2017-08-16T14:10:49.996Z,5.23
2017-08-16T14:13:17.457Z,5.00
2017-08-16T14:15:44.925Z,6.43
2017-08-16T14:18:12.376Z,6.23
2017-08-16T14:20:39.845Z,7.80
2017-08-16T14:23:07.289Z,7.07
2017-08-16T14:25:34.752Z,5.60
2017-08-16T14:28:02.213Z,5.30
2017-08-16T14:30:29.689Z,7.90
2017-08-16T14:32:57.140Z,8.00
2017-08-16T14:35:24.616Z,7.07
2017-08-16T14:37:52.084Z,6.53
2017-08-16T14:40:19.547Z,5.70
2017-08-16T14:42:47.009Z,6.00
2017-08-16T14:45:14.465Z,6.17
2017-08-16T14:47:41.916Z,5.93
2017-08-16T14:50:09.374Z,5.80
2017-08-16T14:52:37.179Z,7.37
2017-08-16T14:55:04.628Z,6.50
2017-08-16T14:57:32.077Z,6.77
2017-08-16T14:59:59.548Z,7.80
2017-08-16T15:02:26.988Z,6.40
2017-08-16T15:04:55.230Z,7.83
2017-08-16T15:07:22.763Z,6.90
2017-08-16T15:09:50.230Z,6.93
2017-08-16T15:12:17.685Z,6.87
2017-08-16T15:14:45.149Z,6.70
2017-08-16T15:17:12.612Z,6.83
2017-08-16T15:19:40.108Z,6.77
2017-08-16T15:22:07.553Z,6.60
2017-08-16T15:24:35.017Z,8.00
2017-08-16T15:27:02.477Z,6.67
2017-08-16T15:29:29.988Z,7.57
2017-08-16T15:31:58.226Z,10.70
2017-08-16T15:34:25.690Z,7.60
2017-08-16T15:36:53.133Z,6.90
2017-08-16T15:39:20.597Z,7.50
2017-08-16T15:41:48.052Z,7.03
2017-08-16T15:44:15.521Z,6.20
2017-08-16T15:46:42.985Z,7.63
2017-08-16T15:49:10.443Z,7.07
2017-08-16T15:51:37.883Z,7.20
2017-08-16T15:54:06.118Z,6.37
2017-08-16T15:56:33.580Z,6.90
2017-08-16T15:59:01.052Z,12.63
2017-08-16T16:01:28.509Z,6.53
2017-08-16T16:03:55.976Z,7.70
2017-08-16T16:06:23.433Z,7.07
2017-08-16T16:08:50.897Z,7.07
2017-08-16T16:11:18.358Z,6.57
2017-08-16T16:13:45.813Z,9.33
2017-08-16T16:16:13.276Z,7.70
2017-08-16T16:18:40.717Z,7.27
2017-08-16T16:21:08.188Z,7.90
2017-08-16T16:23:35.645Z,7.27
2017-08-16T16:26:03.175Z,7.30
2017-08-16T16:28:30.629Z,6.63
2017-08-16T16:30:58.860Z,6.33
2017-08-16T16:33:26.324Z,6.70
2017-08-16T16:35:53.780Z,7.40
2017-08-16T16:38:21.269Z,6.43
2017-08-16T16:40:48.725Z,7.60
2017-08-16T16:43:16.276Z,7.10
2017-08-16T16:45:43.774Z,6.90
2017-08-16T16:48:11.233Z,7.20
2017-08-16T16:50:38.688Z,9.10
2017-08-16T16:53:06.141Z,6.53
2017-08-16T16:55:33.597Z,6.90
2017-08-16T16:58:01.061Z,5.80
2017-08-16T17:00:28.586Z,7.83
2017-08-16T17:02:56.049Z,5.50
2017-08-16T17:05:24.274Z,6.80
2017-08-16T17:07:51.771Z,8.97
2017-08-16T17:10:19.995Z,6.13
2017-08-16T17:12:47.464Z,6.80
2017-08-16T17:15:14.920Z,6.37
2017-08-16T17:17:42.386Z,6.70
2017-08-16T17:20:09.872Z,5.73
2017-08-16T17:22:37.337Z,5.20
2017-08-16T17:25:04.836Z,7.17
2017-08-16T17:27:33.063Z,6.00
2017-08-16T17:30:00.534Z,6.40
2017-08-16T17:32:28.000Z,7.27
2017-08-16T17:34:55.453Z,8.87
2017-08-16T17:37:22.912Z,8.10
2017-08-16T17:39:50.368Z,8.57
2017-08-16T17:42:17.821Z,13.20
2017-08-16T17:44:45.298Z,10.03
2017-08-16T17:47:12.744Z,8.47
2017-08-16T17:49:40.208Z,8.33
2017-08-16T17:52:07.657Z,8.10
2017-08-16T17:54:35.881Z,11.73
2017-08-16T17:57:03.362Z,8.87
2017-08-16T17:59:30.816Z,8.13
2017-08-16T18:01:58.282Z,7.90
2017-08-16T18:04:25.737Z,11.17
2017-08-16T18:06:53.193Z,7.57
2017-08-16T18:09:21.046Z,8.47
2017-08-16T18:11:48.517Z,7.83
2017-08-16T18:14:16.008Z,8.70
2017-08-16T18:16:43.509Z,10.07
2017-08-16T18:19:11.725Z,9.17
2017-08-16T18:21:39.181Z,15.53
2017-08-16T18:24:06.653Z,10.33
2017-08-16T18:26:34.108Z,11.73
2017-08-16T18:29:01.569Z,8.00
2017-08-16T18:31:29.038Z,8.67
2017-08-16T18:33:56.521Z,8.10
2017-08-16T18:36:23.957Z,11.30
2017-08-16T18:38:51.418Z,8.80
2017-08-16T18:41:18.872Z,8.37
2017-08-16T18:43:46.328Z,8.23
2017-08-16T18:46:13.769Z,8.83
2017-08-16T18:48:41.993Z,9.73
2017-08-16T18:51:09.473Z,14.33
2017-08-16T18:53:36.937Z,15.27
2017-08-16T18:56:05.230Z,8.10
2017-08-16T18:58:32.689Z,8.97
2017-08-16T19:01:00.159Z,9.20
2017-08-16T19:03:27.684Z,8.17
2017-08-16T19:05:55.146Z,10.00
2017-08-16T19:08:22.746Z,8.23
2017-08-16T19:10:50.197Z,9.67
2017-08-16T19:13:17.700Z,13.00
2017-08-16T19:15:45.930Z,20.50
2017-08-16T19:18:13.383Z,7.60
2017-08-16T19:20:44.995Z,14.20
2017-08-16T19:23:12.462Z,8.60
2017-08-16T19:25:39.925Z,12.10
2017-08-16T19:28:07.364Z,9.33
2017-08-16T19:30:34.828Z,12.47
2017-08-16T19:33:02.298Z,13.90
2017-08-16T19:35:29.761Z,11.30
2017-08-16T19:37:57.241Z,9.40
2017-08-16T19:40:25.462Z,7.40
2017-08-16T19:42:52.924Z,21.53
2017-08-16T19:45:20.389Z,8.70
2017-08-16T19:47:47.856Z,9.80
2017-08-16T19:50:15.302Z,9.03
2017-08-16T19:52:42.761Z,9.83
2017-08-16T19:55:10.218Z,8.40
2017-08-16T19:57:37.673Z,7.00
2017-08-16T20:00:05.897Z,7.63
2017-08-16T20:02:33.360Z,7.40
2017-08-16T20:05:00.816Z,7.70
2017-08-16T20:07:28.286Z,11.53
2017-08-16T20:09:55.740Z,8.57
2017-08-16T20:12:23.197Z,7.87
2017-08-16T20:14:50.673Z,7.93
2017-08-16T20:17:18.120Z,7.97
2017-08-16T20:19:45.585Z,10.60
2017-08-16T20:22:13.061Z,10.27
2017-08-16T20:24:40.513Z,9.50
2017-08-16T20:27:08.028Z,7.30
2017-08-16T20:29:35.485Z,7.77
2017-08-16T20:32:02.970Z,7.93
2017-08-16T20:34:31.181Z,8.47
2017-08-16T20:36:58.661Z,10.83
2017-08-16T20:39:26.113Z,7.43
2017-08-16T20:41:53.570Z,8.30
2017-08-16T20:44:21.029Z,8.50
2017-08-16T20:46:48.480Z,19.53
2017-08-16T20:49:15.933Z,9.00
2017-08-16T20:51:44.347Z,10.90
2017-08-16T20:54:11.805Z,6.30
2017-08-16T20:56:39.258Z,6.63
2017-08-16T20:59:06.706Z,7.67
2017-08-16T21:01:34.164Z,8.50
2017-08-16T21:04:01.641Z,6.90
2017-08-16T21:06:29.093Z,8.03
2017-08-16T21:08:56.539Z,9.07
2017-08-16T21:11:24.765Z,7.40
2017-08-16T21:13:52.221Z,12.47
2017-08-16T21:16:19.700Z,10.57
2017-08-16T21:18:47.162Z,8.53
2017-08-16T21:21:14.613Z,8.10
2017-08-16T21:23:42.069Z,7.33
2017-08-16T21:26:09.533Z,8.30
2017-08-16T21:28:36.997Z,6.63
2017-08-16T21:31:04.446Z,7.93
2017-08-16T21:33:31.908Z,8.50
2017-08-16T21:35:59.357Z,10.20
2017-08-16T21:38:29.502Z,9.53
2017-08-16T21:40:56.953Z,7.83
2017-08-16T21:43:24.413Z,10.20
2017-08-16T21:45:52.642Z,12.50
2017-08-16T21:48:20.137Z,7.40
2017-08-16T21:50:48.531Z,7.93
2017-08-16T21:53:16.005Z,8.03
2017-08-16T21:55:44.198Z,18.97
2017-08-16T21:58:11.688Z,10.50
2017-08-16T22:00:39.166Z,7.27
2017-08-16T22:03:06.643Z,7.97
2017-08-16T22:05:34.877Z,9.23
2017-08-16T22:08:02.344Z,8.70
2017-08-16T22:10:29.802Z,16.03
2017-08-16T22:12:57.265Z,15.40
2017-08-16T22:15:24.718Z,12.60
2017-08-16T22:17:52.190Z,11.43
2017-08-16T22:20:19.654Z,12.50
2017-08-16T22:22:47.100Z,8.93
2017-08-16T22:25:14.559Z,8.33
2017-08-16T22:27:42.029Z,8.87
2017-08-16T22:30:09.493Z,10.67
2017-08-16T22:32:36.944Z,11.60
2017-08-16T22:35:04.434Z,8.37
2017-08-16T22:37:31.888Z,11.57
2017-08-16T22:39:59.337Z,7.27
2017-08-16T22:42:26.798Z,12.70
2017-08-16T22:44:54.268Z,9.57
2017-08-16T22:47:22.339Z,8.13
2017-08-16T22:49:49.807Z,8.53
2017-08-16T22:52:17.252Z,8.00
2017-08-16T22:54:45.481Z,7.10
2017-08-16T22:57:12.937Z,13.60
2017-08-16T22:59:40.401Z,7.07
2017-08-16T23:02:08.679Z,8.00
2017-08-16T23:04:36.137Z,7.30
2017-08-16T23:07:03.596Z,8.60
2017-08-16T23:09:31.045Z,8.97
2017-08-16T23:11:58.505Z,11.03
2017-08-16T23:14:25.960Z,10.80
2017-08-16T23:16:53.421Z,9.00
2017-08-16T23:19:22.743Z,8.80
2017-08-16T23:21:50.199Z,8.33
2017-08-16T23:24:17.665Z,12.13
2017-08-16T23:26:45.116Z,11.43
2017-08-16T23:29:13.333Z,8.20
2017-08-16T23:31:40.789Z,9.87
2017-08-16T23:34:08.245Z,11.13
2017-08-16T23:36:35.705Z,10.20
2017-08-16T23:39:03.177Z,25.27
2017-08-16T23:41:30.629Z,9.80
2017-08-16T23:43:58.085Z,7.30
2017-08-16T23:46:25.563Z,11.73
2017-08-16T23:48:53.025Z,9.03
2017-08-16T23:51:20.522Z,7.80
2017-08-16T23:53:47.978Z,8.23
2017-08-16T23:56:15.449Z,11.30
2017-08-16T23:58:42.933Z,10.00
